Time;durP1;ratioP1;P1;durP2;ratioP2;P2;SDS_P1;SDS_P2;PMS_P1;PMS_P2;Temp;Humidity;BMP_temperature;BMP_pressure;BME280_temperature;BME280_humidity;BME280_pressure;Samples;Min_cycle;Max_cycle;Signal;HPM_P1;HPM_P2
2022/08/11 00:01:45;;;;;;;5.03;2.80;;;17.50;83.90;;;;;;5051324;28;20036;-45
2022/08/11 00:04:12;;;;;;;4.18;2.67;;;17.50;83.80;;;;;;5051414;28;20116;-46
2022/08/11 00:06:39;;;;;;;3.83;2.75;;;17.50;83.90;;;;;;5051570;28;20093;-45
2022/08/11 00:09:09;;;;;;;3.58;2.65;;;17.50;84.90;;;;;;5074737;28;20040;-46
2022/08/11 00:11:47;;;;;;;5.23;2.53;;;17.40;85.50;;;;;;5089313;28;20024;-48
2022/08/11 00:14:16;;;;;;;3.47;2.70;;;17.40;85.70;;;;;;5091368;28;20776;-48
2022/08/11 00:16:51;;;;;;;6.07;2.50;;;17.30;86.20;;;;;;5091079;28;20043;-45
2022/08/11 00:19:42;;;;;;;3.45;2.83;;;17.20;87.00;;;;;;5091176;28;20020;-45
2022/08/11 00:22:09;;;;;;;3.15;2.58;;;17.20;87.50;;;;;;5090177;28;20517;-44
2022/08/11 00:24:39;;;;;;;3.08;2.38;;;17.10;88.40;;;;;;5090744;28;20020;-47
2022/08/11 00:27:06;;;;;;;3.03;2.50;;;17.00;88.60;;;;;;5090839;28;20016;-44
2022/08/11 00:29:31;;;;;;;3.40;2.83;;;17.00;89.90;;;;;;5091101;28;20506;-45
2022/08/11 00:32:00;;;;;;;2.78;2.38;;;16.90;90.30;;;;;;5090175;28;20033;-47
2022/08/11 00:34:28;;;;;;;4.80;3.13;;;16.90;90.60;;;;;;5089507;28;20021;-48
2022/08/11 00:37:02;;;;;;;3.90;2.88;;;16.80;91.00;;;;;;5089451;28;20032;-44
2022/08/11 00:39:32;;;;;;;3.42;2.63;;;16.70;91.50;;;;;;5079685;28;20268;-46
2022/08/11 00:42:19;;;;;;;4.50;3.13;;;16.70;91.60;;;;;;5089609;28;20020;-47
2022/08/11 00:45:00;;;;;;;5.55;3.50;;;16.70;92.00;;;;;;5090914;28;20498;-47
2022/08/11 00:47:34;;;;;;;;;;;16.70;93.00;;;;;;5091164;28;20032;-48
2022/08/11 00:50:13;;;;;;;3.28;2.55;;;16.60;93.30;;;;;;5090531;28;19912;-44
2022/08/11 00:52:57;;;;;;;2.90;2.55;;;16.60;93.50;;;;;;5089864;28;20045;-45
2022/08/11 00:55:57;;;;;;;2.97;2.45;;;16.60;93.90;;;;;;5090504;28;20020;-46
2022/08/11 00:58:54;;;;;;;5.38;2.72;;;16.50;94.70;;;;;;5086549;28;20116;-45
2022/08/11 01:01:53;;;;;;;5.50;2.80;;;16.50;94.80;;;;;;5079902;28;20502;-45
2022/08/11 01:04:50;;;;;;;2.85;2.42;;;16.50;95.20;;;;;;5090320;28;20016;-45
2022/08/11 01:07:32;;;;;;;2.75;2.45;;;16.50;95.60;;;;;;5090441;28;20024;-45
2022/08/11 01:10:24;;;;;;;5.80;2.70;;;16.40;96.20;;;;;;5090057;28;20028;-44
2022/08/11 01:13:15;;;;;;;3.72;2.88;;;16.50;96.10;;;;;;5087976;28;20099;-45
2022/08/11 01:16:09;;;;;;;2.92;2.67;;;16.50;95.20;;;;;;5070635;28;20096;-44
2022/08/11 01:19:14;;;;;;;3.83;2.70;;;16.50;96.30;;;;;;5070187;28;20043;-45
2022/08/11 01:22:23;;;;;;;2.92;2.63;;;16.50;96.10;;;;;;5069101;28;20029;-46
2022/08/11 01:25:47;;;;;;;3.53;2.63;;;16.50;96.50;;;;;;5069617;28;20025;-44
2022/08/11 01:28:46;;;;;;;3.85;2.63;;;16.50;96.90;;;;;;5069396;28;20028;-45
2022/08/11 01:31:45;;;;;;;4.32;2.42;;;16.40;97.50;;;;;;5068730;28;20498;-45
2022/08/11 01:34:26;;;;;;;3.00;2.65;;;16.30;97.60;;;;;;5069428;28;20025;-44
2022/08/11 01:37:10;;;;;;;3.15;2.53;;;16.30;97.60;;;;;;5068165;28;20023;-44
2022/08/11 01:39:45;;;;;;;4.55;2.70;;;16.30;98.10;;;;;;5069263;28;20028;-48
2022/08/11 01:45:41;;;;;;;3.78;2.65;;;16.20;99.00;;;;;;5080367;28;20133;-45
2022/08/11 01:48:32;;;;;;;2.63;2.42;;;16.10;99.10;;;;;;5089554;28;20051;-45
2022/08/11 01:51:16;;;;;;;4.30;2.78;;;16.10;99.40;;;;;;5088788;28;20031;-48
2022/08/11 01:53:55;;;;;;;4.55;2.70;;;16.10;99.30;;;;;;5089148;28;20455;-47
2022/08/11 01:56:56;;;;;;;2.83;2.42;;;16.00;99.80;;;;;;5089422;28;20020;-47
2022/08/11 01:59:33;;;;;;;3.88;2.70;;;16.00;99.90;;;;;;5085979;28;20526;-46
2022/08/11 02:02:04;;;;;;;5.50;2.60;;;16.00;99.90;;;;;;5076948;28;20033;-46
2022/08/11 02:04:45;;;;;;;4.25;3.00;;;16.10;99.90;;;;;;5088457;28;20391;-45
2022/08/11 02:07:27;;;;;;;4.25;2.97;;;16.10;99.90;;;;;;5089165;28;20024;-48
2022/08/11 02:13:28;;;;;;;3.17;2.88;;;16.10;99.70;;;;;;5088839;28;20039;-46
2022/08/11 02:16:09;;;;;;;2.50;2.20;;;16.10;99.50;;;;;;5089018;28;20024;-45
2022/08/11 02:24:33;;;;;;;3.33;2.70;;;16.00;99.80;;;;;;5089410;28;20039;-45
2022/08/11 02:27:22;;;;;;;3.38;2.92;;;16.00;99.90;;;;;;5089170;28;20085;-48
2022/08/11 02:30:11;;;;;;;3.97;2.83;;;16.00;99.90;;;;;;5083857;28;20039;-45
2022/08/11 02:33:22;;;;;;;4.68;2.72;;;16.00;99.90;;;;;;5067747;28;20033;-44
2022/08/11 02:36:07;;;;;;;3.80;3.25;;;15.90;99.90;;;;;;5067396;28;20519;-46
2022/08/11 02:38:42;;;;;;;5.57;2.95;;;15.80;99.90;;;;;;5069015;28;20024;-45
2022/08/11 02:44:33;;;;;;;3.60;2.97;;;15.80;99.90;;;;;;5069085;28;20090;-45
2022/08/11 02:49:52;;;;;;;3.50;2.97;;;15.80;99.90;;;;;;5068215;28;20028;-48
2022/08/11 02:51:19;;;;;;;4.28;3.58;;;15.80;99.90;;;;;;5066856;28;20125;-44
2022/08/11 02:54:06;;;;;;;5.43;2.90;;;15.80;99.90;;;;;;5078054;28;20070;-44
2022/08/11 02:56:45;;;;;;;5.32;3.13;;;15.80;99.90;;;;;;5074925;28;20588;-48
2022/08/11 02:59:52;;;;;;;8.43;3.53;;;15.80;99.90;;;;;;5073024;28;20021;-43
2022/08/11 03:02:33;;;;;;;3.90;2.95;;;15.80;99.90;;;;;;5075893;28;20016;-44
2022/08/11 03:05:20;;;;;;;6.35;3.28;;;15.70;99.90;;;;;;5065505;28;20065;-44
2022/08/11 03:08:02;;;;;;;3.83;3.25;;;15.70;99.90;;;;;;5070332;28;20028;-44
2022/08/11 03:10:35;;;;;;;4.85;3.30;;;15.60;99.90;;;;;;5071097;28;20108;-45
2022/08/11 03:19:26;;;;;;;4.20;3.45;;;15.60;99.90;;;;;;5071599;28;20105;-46
2022/08/11 03:22:25;;;;;;;6.18;3.70;;;15.50;99.90;;;;;;5068663;28;20054;-47
2022/08/11 03:25:02;;;;;;;6.05;4.20;;;15.50;99.90;;;;;;5074328;28;20084;-45
2022/08/11 03:27:49;;;;;;;4.43;3.97;;;15.50;99.90;;;;;;5071824;28;20040;-45
2022/08/11 03:30:45;;;;;;;7.00;3.35;;;15.40;99.90;;;;;;5074194;28;20503;-48
2022/08/11 03:36:35;;;;;;;4.10;3.70;;;15.30;99.90;;;;;;5068944;28;20114;-44
2022/08/11 03:39:04;;;;;;;9.07;3.80;;;15.30;99.90;;;;;;5069129;28;20468;-45
2022/08/11 03:41:43;;;;;;;6.85;3.80;;;15.20;99.90;;;;;;5071029;28;20142;-45
2022/08/11 03:44:36;;;;;;;4.03;3.58;;;15.20;99.90;;;;;;5071798;28;20024;-45
2022/08/11 03:47:32;;;;;;;5.22;3.63;;;15.10;99.90;;;;;;5071010;28;20041;-45
2022/08/11 03:50:15;;;;;;;4.57;3.85;;;15.10;99.90;;;;;;5070130;28;20062;-46
2022/08/11 03:52:52;;;;;;;6.65;4.20;;;15.00;99.90;;;;;;5074269;28;20024;-47
2022/08/11 03:56:10;;;;;;;5.75;4.28;;;15.00;99.90;;;;;;5079192;28;20029;-44
2022/08/11 03:59:04;;;;;;;5.22;4.38;;;15.00;99.90;;;;;;5070875;28;20017;-44
2022/08/11 04:02:22;;;;;;;5.38;3.83;;;15.00;99.90;;;;;;5076462;28;20458;-45
2022/08/11 04:05:12;;;;;;;8.00;4.00;;;14.90;99.90;;;;;;5079878;28;20097;-45
2022/08/11 04:08:08;;;;;;;7.35;3.95;;;14.90;99.90;;;;;;5076514;28;20027;-47
2022/08/11 04:11:21;;;;;;;8.23;4.15;;;14.90;99.90;;;;;;5079421;28;20400;-48
2022/08/11 04:17:45;;;;;;;6.47;4.68;;;14.90;99.90;;;;;;5083153;28;20043;-47
2022/08/11 04:20:42;;;;;;;5.60;4.32;;;14.90;99.90;;;;;;5091480;28;20036;-46
2022/08/11 04:23:34;;;;;;;7.57;4.35;;;14.90;99.90;;;;;;5091485;28;20024;-45
2022/08/11 04:26:37;;;;;;;4.97;3.75;;;14.90;99.90;;;;;;5089807;28;20031;-44
2022/08/11 04:29:33;;;;;;;5.72;3.90;;;14.90;99.90;;;;;;5074710;28;20033;-44
2022/08/11 04:32:36;;;;;;;4.55;3.65;;;14.90;99.90;;;;;;5070120;28;20475;-45
2022/08/11 04:35:25;;;;;;;6.53;4.50;;;14.90;99.90;;;;;;5070909;28;20545;-44
2022/08/11 04:37:53;;;;;;;9.75;4.50;;;15.00;99.90;;;;;;5069295;28;20051;-45
2022/08/11 04:40:55;;;;;;;5.38;3.70;;;15.00;99.90;;;;;;5066774;28;20588;-44
2022/08/11 04:43:56;;;;;;;6.75;4.80;;;15.10;99.90;;;;;;5067757;28;20016;-45
2022/08/11 04:46:57;;;;;;;7.18;4.50;;;15.10;99.90;;;;;;5026975;28;20415;-46
2022/08/11 05:02:52;;;;;;;4.65;3.67;;;15.50;99.90;;;;;;5064448;28;20091;-47
2022/08/11 05:05:36;;;;;;;4.55;3.58;;;15.50;99.90;;;;;;5044631;28;20053;-45
2022/08/11 05:08:39;;;;;;;6.30;3.78;;;15.50;99.90;;;;;;5049960;28;20079;-49
2022/08/11 05:11:10;;;;;;;4.65;3.85;;;15.60;99.90;;;;;;5049324;28;20029;-46
2022/08/11 05:37:01;;;;;;;7.55;5.15;;;16.10;99.90;;;;;;5061242;28;20040;-44
2022/08/11 05:56:18;;;;;;;8.35;4.75;;;16.50;99.90;;;;;;5068667;28;20086;-46
2022/08/11 05:58:49;;;;;;;7.55;5.13;;;16.60;99.90;;;;;;5069040;28;20031;-45
2022/08/11 06:01:26;;;;;;;5.90;4.57;;;16.60;99.90;;;;;;5068040;28;20020;-45
2022/08/11 06:04:13;;;;;;;9.95;4.20;;;16.70;99.90;;;;;;5068982;28;20059;-45
2022/08/11 06:06:50;;;;;;;7.40;4.78;;;16.70;99.90;;;;;;5070112;28;20035;-45
2022/08/11 06:09:29;;;;;;;7.97;4.65;;;16.80;99.90;;;;;;5067366;28;20027;-47
2022/08/11 06:12:00;;;;;;;9.25;4.65;;;16.90;99.90;;;;;;5066867;28;20032;-46
2022/08/11 06:14:26;;;;;;;9.63;4.47;;;17.00;99.90;;;;;;5066576;28;20023;-45
2022/08/11 06:16:57;;;;;;;8.70;5.05;;;17.00;99.90;;;;;;5068315;28;20060;-46
2022/08/11 06:19:32;;;;;;;9.13;4.63;;;17.00;99.90;;;;;;5070651;28;20028;-45
2022/08/11 06:22:00;;;;;;;7.13;4.68;;;17.10;99.90;;;;;;5070636;28;20024;-45
2022/08/11 06:24:28;;;;;;;5.80;4.78;;;17.10;99.90;;;;;;5068571;28;20046;-45
2022/08/11 06:26:54;;;;;;;7.13;4.68;;;17.20;99.90;;;;;;5067131;28;20029;-47
2022/08/11 06:29:20;;;;;;;7.78;4.85;;;17.30;99.90;;;;;;5067303;28;20085;-45
2022/08/11 06:31:59;;;;;;;10.88;4.95;;;17.40;99.90;;;;;;5068323;28;20032;-45
2022/08/11 06:34:36;;;;;;;9.07;4.60;;;17.50;99.90;;;;;;5068407;28;20044;-45
2022/08/11 06:37:23;;;;;;;11.10;5.15;;;17.60;99.90;;;;;;5068678;28;20021;-47
2022/08/11 06:40:10;;;;;;;7.50;4.63;;;17.60;99.90;;;;;;5068137;28;20021;-45
2022/08/11 06:43:14;;;;;;;6.13;3.85;;;17.70;99.90;;;;;;5047812;28;20032;-45
2022/08/11 06:45:49;;;;;;;6.07;4.50;;;17.80;99.90;;;;;;5037946;28;20103;-48
2022/08/11 06:48:20;;;;;;;6.03;4.55;;;17.80;99.90;;;;;;5073950;28;20032;-46
2022/08/11 06:53:46;;;;;;;5.88;3.85;;;17.90;99.90;;;;;;5088717;28;20096;-43
2022/08/11 07:02:11;;;;;;;5.97;4.18;;;18.30;99.90;;;;;;5076911;28;20032;-44
2022/08/11 07:05:00;;;;;;;7.03;4.18;;;18.40;99.90;;;;;;5068320;28;20044;-44
2022/08/11 07:16:29;;;;;;;4.55;3.55;;;19.00;99.90;;;;;;5047971;28;20040;-44
2022/08/11 07:30:16;;;;;;;6.55;4.45;;;19.60;99.90;;;;;;5057565;28;20047;-48
2022/08/11 07:32:52;;;;;;;7.35;4.15;;;19.70;99.90;;;;;;5063628;28;20037;-45
2022/08/11 07:35:29;;;;;;;5.32;3.80;;;19.90;99.90;;;;;;5065163;28;20468;-45
2022/08/11 07:37:59;;;;;;;5.18;3.50;;;20.00;99.90;;;;;;5066975;28;20104;-44
2022/08/11 07:40:25;;;;;;;4.90;3.65;;;20.20;99.80;;;;;;5064499;28;20587;-45
2022/08/11 07:42:52;;;;;;;7.03;3.70;;;20.30;98.90;;;;;;5065627;28;20039;-44
2022/08/11 07:53:34;;;;;;;4.70;3.30;;;20.90;98.30;;;;;;5070706;28;20101;-43
2022/08/11 07:56:01;;;;;;;7.47;4.57;;;21.10;97.80;;;;;;5066055;28;20024;-44
2022/08/11 08:17:58;;;;;;;6.13;3.53;;;23.20;93.70;;;;;;5067628;28;20039;-45
2022/08/11 08:20:39;;;;;;;4.85;4.00;;;23.50;93.10;;;;;;5065179;28;20020;-46
2022/08/11 08:23:06;;;;;;;4.60;3.75;;;23.90;91.90;;;;;;5066774;28;20474;-46
2022/08/11 08:25:40;;;;;;;4.93;3.00;;;24.50;91.20;;;;;;5069594;28;20025;-45
2022/08/11 08:28:09;;;;;;;9.68;3.13;;;25.50;90.30;;;;;;5067866;28;20031;-46
2022/08/11 08:30:49;;;;;;;6.30;3.40;;;26.90;83.10;;;;;;5061656;28;20028;-46
2022/08/11 08:33:26;;;;;;;7.47;3.42;;;28.30;79.70;;;;;;5067107;28;20021;-45
2022/08/11 08:36:10;;;;;;;4.50;2.78;;;30.00;71.70;;;;;;5069230;28;20028;-46
2022/08/11 08:38:51;;;;;;;2.95;2.58;;;31.40;66.30;;;;;;5067628;28;20020;-46
2022/08/11 08:41:21;;;;;;;2.45;2.25;;;32.50;61.30;;;;;;5068236;28;20098;-47
2022/08/11 08:43:53;;;;;;;2.60;2.15;;;33.60;58.50;;;;;;5067265;28;20034;-47
2022/08/11 08:46:43;;;;;;;7.82;2.70;;;34.40;55.00;;;;;;5069833;28;20442;-46
2022/08/11 08:49:13;;;;;;;8.20;2.45;;;35.80;52.70;;;;;;5065298;28;20044;-46
2022/08/11 08:51:40;;;;;;;2.50;2.30;;;36.10;50.80;;;;;;5049600;28;20541;-48
2022/08/11 08:54:19;;;;;;;4.45;2.38;;;36.40;49.20;;;;;;5067376;28;20039;-46
2022/08/11 08:56:45;;;;;;;5.57;2.13;;;37.20;49.00;;;;;;5067071;28;20035;-46
2022/08/11 08:59:15;;;;;;;5.55;2.30;;;38.70;46.70;;;;;;5069113;28;20033;-49
2022/08/11 09:01:49;;;;;;;6.32;2.30;;;38.50;45.40;;;;;;5069173;28;20078;-48
2022/08/11 09:04:17;;;;;;;4.00;2.03;;;38.90;44.90;;;;;;5067224;28;20059;-47
2022/08/11 09:06:43;;;;;;;1.80;1.65;;;39.70;43.30;;;;;;5070099;28;20039;-50
2022/08/11 09:09:13;;;;;;;2.72;2.10;;;40.00;42.90;;;;;;5069203;28;20028;-46
2022/08/11 09:11:49;;;;;;;3.55;2.05;;;40.40;41.90;;;;;;5067669;28;20027;-47
2022/08/11 09:18:08;;;;;;;6.50;2.50;;;41.00;41.50;;;;;;5045463;28;20033;-57
2022/08/11 09:20:36;;;;;;;8.05;2.47;;;40.70;41.10;;;;;;5067868;28;20200;-57
2022/08/11 09:28:47;;;;;;;4.55;1.95;;;41.40;39.30;;;;;;5049606;28;20254;-57
2022/08/11 09:31:14;;;;;;;3.75;1.45;;;41.50;39.10;;;;;;5048081;28;20467;-57
2022/08/11 09:33:42;;;;;;;4.13;2.20;;;42.60;38.10;;;;;;5070891;28;20027;-57
2022/08/11 09:41:39;;;;;;;3.20;2.00;;;42.40;37.90;;;;;;5068399;28;20491;-57
2022/08/11 09:46:52;;;;;;;3.17;1.67;;;42.60;37.60;;;;;;5069962;28;20136;-58
2022/08/11 09:49:20;;;;;;;7.82;2.50;;;42.50;37.70;;;;;;5069376;28;20024;-58
2022/08/11 09:51:48;;;;;;;8.90;2.83;;;42.70;37.30;;;;;;5068974;28;20490;-61
2022/08/11 09:54:15;;;;;;;5.65;2.17;;;42.00;37.40;;;;;;5069724;28;20271;-57
2022/08/11 09:59:25;;;;;;;5.40;1.83;;;43.00;37.00;;;;;;5069735;28;20035;-57
2022/08/11 10:01:58;;;;;;;3.22;2.00;;;43.40;36.20;;;;;;5068667;28;20029;-57
2022/08/11 10:04:33;;;;;;;4.00;2.00;;;43.90;35.00;;;;;;5068596;28;20556;-57
2022/08/11 10:07:01;;;;;;;4.78;1.90;;;44.70;35.00;;;;;;5085226;28;20111;-58
2022/08/11 10:09:47;;;;;;;4.10;2.30;;;44.50;35.50;;;;;;5088871;28;20048;-58
2022/08/11 10:12:25;;;;;;;2.75;1.60;;;45.10;33.80;;;;;;5081564;28;20127;-57
2022/08/11 10:20:38;;;;;;;1.80;1.50;;;44.80;31.70;;;;;;5049331;28;20031;-57
2022/08/11 10:28:35;;;;;;;6.07;2.40;;;43.50;33.00;;;;;;5049547;28;20066;-56
2022/08/11 10:34:00;;;;;;;4.35;1.70;;;43.80;33.40;;;;;;5069766;28;20086;-56
2022/08/11 10:36:48;;;;;;;3.75;1.80;;;43.90;33.30;;;;;;5067057;28;20024;-56
2022/08/11 10:39:17;;;;;;;6.03;1.85;;;43.90;33.00;;;;;;5076178;28;20028;-57
2022/08/11 10:44:36;;;;;;;3.60;1.83;;;44.80;32.80;;;;;;5069540;28;20139;-58
2022/08/11 10:51:11;;;;;;;2.83;1.60;;;44.00;32.60;;;;;;5071436;28;20048;-57
2022/08/11 11:00:49;;;;;;;2.63;1.75;;;43.60;33.80;;;;;;5070683;28;20114;-57
2022/08/11 11:03:15;;;;;;;3.33;1.58;;;43.30;33.10;;;;;;5068438;28;20108;-57
2022/08/11 11:05:42;;;;;;;4.22;1.70;;;43.30;32.80;;;;;;5081552;28;20052;-57
2022/08/11 11:10:58;;;;;;;2.42;1.65;;;43.70;32.80;;;;;;5089951;28;20169;-57
2022/08/11 11:18:59;;;;;;;5.22;1.98;;;43.60;33.20;;;;;;5050212;28;20116;-57
2022/08/11 11:21:25;;;;;;;2.03;1.67;;;43.90;32.80;;;;;;5049815;28;20036;-58
2022/08/11 11:24:38;;;;;;;2.88;1.50;;;43.60;32.70;;;;;;5050457;28;20029;-56
2022/08/11 11:27:18;;;;;;;2.08;1.77;;;43.90;32.40;;;;;;5051746;28;20059;-56
2022/08/11 11:30:02;;;;;;;4.68;1.85;;;43.90;32.40;;;;;;5052994;28;20025;-56
2022/08/11 11:32:50;;;;;;;3.88;1.60;;;44.00;32.20;;;;;;5053132;28;20029;-57
2022/08/11 11:35:32;;;;;;;2.05;1.60;;;44.50;31.50;;;;;;5079709;28;20124;-57
2022/08/11 11:38:00;;;;;;;3.08;1.80;;;44.30;31.70;;;;;;5093801;28;20024;-56
2022/08/11 11:40:27;;;;;;;3.53;1.65;;;44.00;31.80;;;;;;5094117;28;20069;-56
2022/08/11 11:42:55;;;;;;;2.35;1.52;;;43.80;32.00;;;;;;5093560;28;20039;-56
2022/08/11 11:45:24;;;;;;;2.97;1.63;;;43.60;32.20;;;;;;5092425;28;20089;-56
2022/08/11 11:47:51;;;;;;;;;;;43.00;33.20;;;;;;5092720;28;20047;-56
2022/08/11 11:50:22;;;;;;;3.33;1.80;;;43.10;32.20;;;;;;5091878;28;19912;-59
2022/08/11 11:52:51;;;;;;;3.78;1.85;;;43.00;32.60;;;;;;5091694;28;20016;-56
2022/08/11 11:55:18;;;;;;;2.80;1.52;;;43.40;31.50;;;;;;5093413;28;20050;-57
2022/08/11 12:03:26;;;;;;;4.20;1.95;;;42.40;32.30;;;;;;5078134;28;20036;-58
2022/08/11 12:05:52;;;;;;;4.78;1.70;;;42.50;32.30;;;;;;5084835;28;20048;-56
2022/08/11 12:08:20;;;;;;;2.38;1.77;;;42.40;32.30;;;;;;5093736;28;20077;-57
2022/08/11 12:13:41;;;;;;;9.32;2.40;;;42.20;32.60;;;;;;5093645;28;20081;-56
2022/08/11 12:16:12;;;;;;;2.60;2.13;;;41.60;33.10;;;;;;5084415;28;20059;-55
2022/08/11 12:18:40;;;;;;;4.55;1.70;;;40.70;33.50;;;;;;5081047;28;20099;-56
2022/08/11 12:21:06;;;;;;;3.63;2.17;;;40.00;34.40;;;;;;5070852;28;20119;-57
2022/08/11 12:27:19;;;;;;;4.47;2.00;;;39.20;35.10;;;;;;5071380;28;20395;-56
2022/08/11 12:29:26;;;;;;;2.35;2.03;;;38.50;35.20;;;;;;5072280;28;20033;-56
2022/08/11 12:31:57;;;;;;;2.20;1.70;;;38.20;35.30;;;;;;5072061;28;20050;-56
2022/08/11 12:34:26;;;;;;;4.68;1.95;;;37.80;35.80;;;;;;5071508;28;20449;-56
2022/08/11 12:37:00;;;;;;;3.03;2.05;;;37.70;35.50;;;;;;5072470;28;20025;-55
2022/08/11 12:53:24;;;;;;;5.32;1.80;;;36.90;35.10;;;;;;5071318;28;20082;-56
2022/08/11 12:58:40;;;;;;;1.88;1.70;;;36.70;34.70;;;;;;5071243;28;20028;-56
2022/08/11 13:06:36;;;;;;;3.42;1.88;;;36.50;35.10;;;;;;5092271;28;20103;-55
2022/08/11 13:09:02;;;;;;;2.40;1.90;;;36.30;34.80;;;;;;5092093;28;20024;-55
2022/08/11 13:14:15;;;;;;;7.28;2.30;;;36.40;35.20;;;;;;5082172;28;20036;-55
2022/08/11 13:19:27;;;;;;;3.80;2.08;;;35.90;34.80;;;;;;5070852;28;20144;-56
2022/08/11 13:21:53;;;;;;;4.05;1.77;;;36.00;35.30;;;;;;5070168;28;20060;-57
2022/08/11 13:24:21;;;;;;;4.95;1.85;;;35.90;35.30;;;;;;5070692;28;20550;-56
2022/08/11 13:26:49;;;;;;;4.38;2.17;;;35.80;35.20;;;;;;5070457;28;20032;-56
2022/08/11 13:29:17;;;;;;;2.40;1.98;;;35.70;36.00;;;;;;5078114;28;20020;-56
2022/08/11 13:31:43;;;;;;;5.32;2.10;;;35.60;35.80;;;;;;5077154;28;20391;-56
2022/08/11 13:34:09;;;;;;;6.18;2.15;;;35.70;36.20;;;;;;5070022;28;20361;-57
2022/08/11 13:36:35;;;;;;;3.65;2.10;;;35.80;36.40;;;;;;5075757;28;20429;-56
2022/08/11 13:39:02;;;;;;;2.35;2.15;;;35.70;36.10;;;;;;5085893;28;20107;-56
2022/08/11 13:41:38;;;;;;;4.53;2.03;;;35.70;36.50;;;;;;5090312;28;20077;-56
2022/08/11 13:44:05;;;;;;;3.33;2.15;;;35.70;36.70;;;;;;5066964;28;20485;-56
2022/08/11 13:46:32;;;;;;;3.40;1.90;;;35.80;36.30;;;;;;5068875;28;20033;-56
2022/08/11 13:48:59;;;;;;;2.50;2.00;;;35.70;36.20;;;;;;5071093;28;20435;-56
2022/08/11 13:51:34;;;;;;;2.10;1.90;;;35.60;36.80;;;;;;5067819;28;20383;-56
2022/08/11 13:54:02;;;;;;;5.63;2.60;;;35.30;36.40;;;;;;5071045;28;20020;-56
2022/08/11 13:56:29;;;;;;;4.55;2.40;;;35.00;36.10;;;;;;5072030;28;20013;-55
2022/08/11 13:58:56;;;;;;;5.15;2.28;;;35.10;37.40;;;;;;5083344;28;20020;-56
2022/08/11 14:01:28;;;;;;;7.93;2.30;;;35.20;37.00;;;;;;5091075;28;20028;-56
2022/08/11 14:03:54;;;;;;;4.10;2.58;;;35.10;36.60;;;;;;5090047;28;20024;-56
2022/08/11 14:06:21;;;;;;;2.10;1.92;;;35.10;36.80;;;;;;5082817;28;20032;-56
2022/08/11 14:08:52;;;;;;;5.50;2.35;;;35.10;36.70;;;;;;5073199;28;20116;-57
2022/08/11 14:14:05;;;;;;;4.18;2.30;;;35.00;37.40;;;;;;5065998;28;20028;-56
2022/08/11 14:16:35;;;;;;;5.82;2.28;;;35.00;37.20;;;;;;5080800;28;20487;-57
2022/08/11 14:19:04;;;;;;;2.35;2.13;;;34.70;37.40;;;;;;5089736;28;20028;-57
2022/08/11 14:24:20;;;;;;;5.93;2.50;;;34.60;37.10;;;;;;5089215;28;20070;-57
2022/08/11 14:26:48;;;;;;;5.07;2.47;;;34.50;37.20;;;;;;5082057;28;20020;-57
2022/08/11 14:29:16;;;;;;;5.25;2.25;;;34.50;36.90;;;;;;5089356;28;20020;-57
2022/08/11 14:31:47;;;;;;;6.40;2.75;;;34.50;37.30;;;;;;5077846;28;20020;-57
2022/08/11 14:34:14;;;;;;;5.55;2.08;;;34.50;37.10;;;;;;5070304;28;20032;-57
2022/08/11 14:36:46;;;;;;;6.78;2.22;;;34.50;36.80;;;;;;5077529;28;20225;-57
2022/08/11 14:39:17;;;;;;;7.03;2.20;;;34.60;36.50;;;;;;5085701;28;20524;-57
2022/08/11 14:47:17;;;;;;;2.78;2.17;;;34.40;36.70;;;;;;5068395;28;20027;-56
2022/08/11 14:49:44;;;;;;;3.22;2.60;;;34.30;37.20;;;;;;5090632;28;20028;-57
2022/08/11 14:52:14;;;;;;;4.10;2.35;;;34.40;37.20;;;;;;5078149;28;20033;-57
2022/08/11 14:57:27;;;;;;;3.08;2.45;;;34.40;36.60;;;;;;5070311;28;20094;-56
2022/08/11 14:59:55;;;;;;;3.45;2.53;;;34.30;37.30;;;;;;5067648;28;20096;-56
2022/08/11 15:05:06;;;;;;;5.88;2.50;;;34.20;37.10;;;;;;5073285;28;20494;-56
2022/08/11 15:07:32;;;;;;;3.35;2.38;;;34.10;37.30;;;;;;5069416;28;20055;-56
2022/08/11 15:10:00;;;;;;;4.47;2.42;;;34.10;37.00;;;;;;5073734;28;20104;-56
2022/08/11 15:12:27;;;;;;;5.90;2.20;;;34.10;36.60;;;;;;5070222;28;20028;-56
2022/08/11 15:17:39;;;;;;;2.25;2.05;;;34.00;36.20;;;;;;5072554;28;20063;-56
2022/08/11 15:25:38;;;;;;;5.30;2.00;;;33.70;36.10;;;;;;5079081;28;20498;-56
2022/08/11 15:39:21;;;;;;;4.30;2.40;;;33.70;36.60;;;;;;5070371;28;20128;-56
2022/08/11 15:47:40;;;;;;;2.53;1.90;;;33.70;36.70;;;;;;5071955;28;20075;-57
2022/08/11 15:50:08;;;;;;;3.65;2.22;;;33.50;36.40;;;;;;5070062;28;20496;-56
2022/08/11 15:52:38;;;;;;;5.32;1.90;;;33.40;36.60;;;;;;5070915;28;20530;-56
2022/08/11 15:55:05;;;;;;;;;;;33.30;37.10;;;;;;5068473;28;20025;-56
2022/08/11 16:05:48;;;;;;;5.18;2.33;;;32.90;37.40;;;;;;5068765;28;20066;-57
2022/08/11 16:08:18;;;;;;;6.20;2.55;;;32.90;37.60;;;;;;5070731;28;20089;-57
2022/08/11 16:10:44;;;;;;;3.53;2.00;;;32.90;37.80;;;;;;5068605;28;20182;-56
2022/08/11 16:18:46;;;;;;;12.55;3.00;;;32.80;37.30;;;;;;5083034;28;20063;-56
2022/08/11 16:21:22;;;;;;;5.38;2.72;;;32.90;37.30;;;;;;5085014;28;20020;-56
2022/08/11 16:23:51;;;;;;;4.15;2.40;;;32.70;37.50;;;;;;5083890;28;20123;-56
2022/08/11 16:26:23;;;;;;;5.20;2.38;;;32.70;37.50;;;;;;5085595;28;20031;-56
2022/08/11 16:28:53;;;;;;;9.73;2.90;;;32.70;37.60;;;;;;5069154;28;20251;-56
2022/08/11 16:31:21;;;;;;;7.03;2.67;;;32.70;37.50;;;;;;5062993;28;20669;-56
2022/08/11 16:33:47;;;;;;;4.93;3.35;;;32.60;37.60;;;;;;5080550;28;20024;-57
2022/08/11 16:39:01;;;;;;;6.60;2.90;;;32.40;38.00;;;;;;5082872;28;20564;-57
2022/08/11 16:47:04;;;;;;;5.93;2.95;;;32.10;38.50;;;;;;5071014;28;20031;-57
2022/08/11 16:49:51;;;;;;;7.90;2.53;;;31.90;38.60;;;;;;5070187;28;20502;-56
2022/08/11 16:52:17;;;;;;;5.63;2.20;;;31.80;38.50;;;;;;5079394;28;20020;-55
2022/08/11 16:54:43;;;;;;;2.97;2.67;;;31.70;38.40;;;;;;5084880;28;20024;-56
2022/08/11 17:00:03;;;;;;;6.25;3.10;;;31.60;38.40;;;;;;5071195;28;20115;-56
2022/08/11 17:13:50;;;;;;;3.03;2.47;;;31.10;39.20;;;;;;5061193;28;20023;-56
2022/08/11 17:16:22;;;;;;;5.47;2.72;;;31.00;39.00;;;;;;5089020;28;20025;-54
2022/08/11 17:18:55;;;;;;;6.28;2.70;;;31.00;39.20;;;;;;5084199;28;20502;-54
2022/08/11 17:21:28;;;;;;;9.07;3.85;;;31.00;39.90;;;;;;5088815;28;20032;-55
2022/08/11 17:23:58;;;;;;;11.38;4.25;;;30.90;40.00;;;;;;5083606;28;20616;-55
2022/08/11 17:26:54;;;;;;;5.18;3.47;;;30.80;39.80;;;;;;5091090;28;20026;-55
2022/08/11 17:29:22;;;;;;;4.25;3.08;;;30.70;40.00;;;;;;5083715;28;20379;-56
2022/08/11 17:37:20;;;;;;;3.78;2.67;;;30.40;40.40;;;;;;5064675;28;20024;-55
2022/08/11 17:39:48;;;;;;;4.57;3.60;;;30.40;40.70;;;;;;5079453;28;20023;-55
2022/08/11 17:50:31;;;;;;;3.65;2.83;;;30.00;42.10;;;;;;5080699;28;20093;-56
2022/08/11 18:01:14;;;;;;;3.55;2.60;;;29.50;43.80;;;;;;5078745;28;20039;-55
2022/08/11 18:03:42;;;;;;;5.05;2.60;;;29.40;44.30;;;;;;5089539;28;20024;-50
2022/08/11 18:06:10;;;;;;;3.60;2.22;;;29.30;43.20;;;;;;5078201;28;20052;-50
